Port Salerno, Florida
Current Conditions -  °F | °C
As of 12:47 PM on Friday 31 Oct 2014 (Local Time) from KSUA Reporting Station
Broken Clouds Broken Clouds  
Wind Chill: 82°   Ceiling: 4500
Heat Index: 84°   Visibility: 7mi
Dew Point: 64°   Wind: 12mph
Humidity: 54%   Direction: 230°SW
Pressure: 29.82"   Gusts: NA
Location:  27.15°N, 80.2°W
Report Text: KSUA 311647Z 23010KT 7SM FEW035 BKN045 28/18 A2982
Loading
Personal Weather Stations






























Interactive Weather Map
Tropical Storm Tracking
New forecast layout! Learn more

10-Day Weather Forecast

Advertisements
Track Severe Weather on mobile